Time;durP1;ratioP1;P1;durP2;ratioP2;P2;SDS_P1;SDS_P2;PMS_P1;PMS_P2;Temp;Humidity;BMP_temperature;BMP_pressure;BME280_temperature;BME280_humidity;BME280_pressure;Samples;Min_cycle;Max_cycle;Signal;HPM_P1;HPM_P2
2023/05/16 00:01:30;;;;;;;12.07;9.33;;;17.20;99.90;;;;;;5099621;28;20196;-84
2023/05/16 00:03:56;;;;;;;17.77;11.17;;;17.20;99.90;;;;;;5099484;28;20541;-82
2023/05/16 00:06:22;;;;;;;14.57;10.73;;;17.30;99.90;;;;;;5099290;28;20203;-82
2023/05/16 00:08:48;;;;;;;13.33;10.23;;;17.30;99.90;;;;;;5117565;28;20406;-83
2023/05/16 00:11:16;;;;;;;15.00;10.13;;;17.20;99.90;;;;;;5099403;28;20698;-82
2023/05/16 00:13:43;;;;;;;16.57;12.23;;;17.30;99.90;;;;;;5099186;28;20417;-84
2023/05/16 00:16:08;;;;;;;13.77;10.87;;;17.20;99.90;;;;;;5117125;28;20830;-84
2023/05/16 00:18:37;;;;;;;15.70;11.90;;;17.30;99.90;;;;;;5117522;28;20411;-83
2023/05/16 00:21:03;;;;;;;17.77;11.70;;;17.30;99.90;;;;;;5099110;28;20204;-82
2023/05/16 00:23:30;;;;;;;15.50;11.60;;;17.40;99.90;;;;;;5098978;28;20405;-84
2023/05/16 00:25:56;;;;;;;17.27;11.97;;;17.30;99.90;;;;;;5117433;28;20431;-84
2023/05/16 00:28:21;;;;;;;15.90;13.20;;;17.30;99.90;;;;;;5117248;28;20939;-83
2023/05/16 00:30:47;;;;;;;18.47;12.37;;;17.30;99.90;;;;;;5117459;28;20282;-84
2023/05/16 00:33:13;;;;;;;18.57;13.00;;;17.30;99.90;;;;;;5098934;28;20547;-82
2023/05/16 00:35:39;;;;;;;16.00;12.67;;;17.30;99.90;;;;;;5117219;28;20479;-84
2023/05/16 00:38:05;;;;;;;19.43;13.27;;;17.30;99.90;;;;;;5117075;28;20514;-84
2023/05/16 00:40:31;;;;;;;23.90;14.97;;;17.30;99.90;;;;;;5098767;28;20530;-84
2023/05/16 00:42:57;;;;;;;22.10;16.20;;;17.30;99.90;;;;;;5116876;28;20404;-82
2023/05/16 00:45:23;;;;;;;26.87;16.00;;;17.30;99.90;;;;;;5099134;28;20504;-84
2023/05/16 00:47:50;;;;;;;24.17;16.00;;;17.30;99.90;;;;;;5116921;28;20176;-83
2023/05/16 00:50:16;;;;;;;27.83;16.13;;;17.20;99.90;;;;;;5098720;28;20502;-82
2023/05/16 00:52:42;;;;;;;24.27;16.73;;;17.20;99.90;;;;;;5116871;28;20428;-83
2023/05/16 00:55:12;;;;;;;26.30;18.20;;;17.20;99.90;;;;;;5116835;28;20461;-84
2023/05/16 00:57:37;;;;;;;24.47;17.43;;;17.20;99.90;;;;;;5098472;28;20420;-83
2023/05/16 01:00:09;;;;;;;31.37;19.50;;;17.20;99.90;;;;;;5116711;28;20924;-84
2023/05/16 01:02:36;;;;;;;28.37;19.90;;;17.20;99.90;;;;;;5116724;28;20254;-84
2023/05/16 01:05:04;;;;;;;28.63;19.30;;;17.20;99.90;;;;;;5116601;28;20478;-84
2023/05/16 01:07:30;;;;;;;32.77;21.87;;;17.20;99.90;;;;;;5116487;28;20410;-83
2023/05/16 01:09:57;;;;;;;34.00;21.33;;;17.30;99.90;;;;;;5097556;28;20524;-84
2023/05/16 01:12:45;;;;;;;28.07;19.47;;;17.20;99.90;;;;;;5098160;28;20875;-83
2023/05/16 01:15:20;;;;;;;31.23;19.20;;;17.30;99.90;;;;;;5116096;28;20972;-84
2023/05/16 01:18:26;;;;;;;34.27;21.27;;;17.30;99.90;;;;;;5097953;28;20416;-82
2023/05/16 01:21:02;;;;;;;35.73;21.47;;;17.30;99.90;;;;;;5098271;28;20460;-82
2023/05/16 01:23:50;;;;;;;33.73;21.83;;;17.30;99.90;;;;;;5116332;28;20376;-84
2023/05/16 01:26:27;;;;;;;31.33;21.77;;;17.30;99.90;;;;;;5098137;28;20948;-82
2023/05/16 01:28:53;;;;;;;32.57;23.60;;;17.30;99.90;;;;;;5098729;28;20416;-82
2023/05/16 01:31:23;;;;;;;37.47;24.90;;;17.30;99.90;;;;;;5118034;28;20451;-86
2023/05/16 01:33:49;;;;;;;36.53;24.47;;;17.30;99.90;;;;;;5116368;28;20977;-82
2023/05/16 01:36:26;;;;;;;37.90;26.00;;;17.30;99.90;;;;;;5097757;28;20472;-86
2023/05/16 01:39:02;;;;;;;38.80;26.60;;;17.30;99.90;;;;;;5098272;28;20924;-83
2023/05/16 01:41:41;;;;;;;37.73;25.00;;;17.30;99.90;;;;;;5097805;28;20444;-83
2023/05/16 01:44:19;;;;;;;44.67;25.87;;;17.30;99.90;;;;;;5115814;28;20904;-84
2023/05/16 01:46:47;;;;;;;39.40;27.60;;;17.30;99.90;;;;;;5097488;28;20444;-84
2023/05/16 01:49:50;;;;;;;45.13;27.70;;;17.40;99.90;;;;;;5097423;28;20435;-82
2023/05/16 01:52:30;;;;;;;44.60;28.23;;;17.30;99.90;;;;;;5062903;28;21016;-84
2023/05/16 01:54:58;;;;;;;51.00;28.70;;;17.30;99.90;;;;;;5115563;28;20443;-84
2023/05/16 01:57:26;;;;;;;41.20;27.73;;;17.30;99.90;;;;;;5115322;28;20509;-84
2023/05/16 01:59:52;;;;;;;45.10;29.60;;;17.30;99.90;;;;;;5097070;28;20423;-83
2023/05/16 02:02:18;;;;;;;51.20;30.90;;;17.30;99.90;;;;;;5115402;28;20422;-83
2023/05/16 02:04:44;;;;;;;46.83;29.60;;;17.40;99.90;;;;;;5115317;28;20416;-85
2023/05/16 02:07:10;;;;;;;46.57;28.23;;;17.40;99.90;;;;;;5097371;28;20413;-82
2023/05/16 02:09:36;;;;;;;49.50;29.70;;;17.30;99.90;;;;;;5096988;28;20664;-82
2023/05/16 02:12:02;;;;;;;51.40;31.03;;;17.30;99.90;;;;;;5096959;28;20407;-84
2023/05/16 02:14:28;;;;;;;49.20;29.90;;;17.30;99.90;;;;;;5096581;28;20181;-85
2023/05/16 02:16:54;;;;;;;44.47;31.27;;;17.30;99.90;;;;;;5096592;28;20224;-85
2023/05/16 02:19:20;;;;;;;45.90;31.90;;;17.30;99.90;;;;;;5096770;28;20426;-84
2023/05/16 02:21:45;;;;;;;51.03;30.60;;;17.30;99.90;;;;;;5095973;28;20433;-85
2023/05/16 02:24:11;;;;;;;46.83;30.80;;;17.40;99.90;;;;;;5096863;28;20664;-83
2023/05/16 02:26:36;;;;;;;47.73;29.77;;;17.40;99.90;;;;;;5116699;28;20257;-83
2023/05/16 02:29:02;;;;;;;43.37;29.30;;;17.40;99.90;;;;;;5097210;28;20171;-82
2023/05/16 02:31:33;;;;;;;44.30;29.73;;;17.40;99.90;;;;;;5096745;28;20204;-85
2023/05/16 02:34:00;;;;;;;42.77;28.13;;;17.40;99.90;;;;;;5114781;28;20172;-83
2023/05/16 02:36:26;;;;;;;41.43;28.70;;;17.40;99.90;;;;;;5115212;28;20479;-82
2023/05/16 02:38:52;;;;;;;42.40;29.43;;;17.40;99.90;;;;;;5096923;28;20802;-84
2023/05/16 02:41:21;;;;;;;42.30;28.97;;;17.40;99.90;;;;;;5096503;28;20530;-83
2023/05/16 02:43:47;;;;;;;45.97;30.57;;;17.40;99.90;;;;;;5096355;28;20203;-82
2023/05/16 02:46:23;;;;;;;38.27;27.10;;;17.40;99.90;;;;;;5115017;28;20475;-84
2023/05/16 02:48:50;;;;;;;37.40;27.93;;;17.40;99.90;;;;;;5114833;28;20440;-84
2023/05/16 02:51:16;;;;;;;42.20;27.57;;;17.40;99.90;;;;;;5114822;28;20447;-82
2023/05/16 02:53:42;;;;;;;38.80;25.80;;;17.40;99.90;;;;;;5114496;28;20444;-84
2023/05/16 02:56:09;;;;;;;38.13;27.07;;;17.40;99.90;;;;;;5114788;28;20537;-84
2023/05/16 02:58:34;;;;;;;41.70;28.20;;;17.40;99.90;;;;;;5114551;28;20179;-84
2023/05/16 03:01:00;;;;;;;36.70;25.90;;;17.50;99.90;;;;;;5096006;28;20460;-84
2023/05/16 03:03:26;;;;;;;35.30;25.00;;;17.40;99.90;;;;;;5096119;28;20179;-83
2023/05/16 03:05:52;;;;;;;38.10;25.30;;;17.40;99.90;;;;;;5096127;28;20291;-84
2023/05/16 03:08:17;;;;;;;32.40;24.73;;;17.30;99.90;;;;;;5114318;28;20168;-83
2023/05/16 03:10:43;;;;;;;33.80;24.07;;;17.30;99.90;;;;;;5114643;28;20207;-83
2023/05/16 03:13:09;;;;;;;32.23;23.60;;;17.30;99.90;;;;;;5114352;28;20167;-84
2023/05/16 03:15:34;;;;;;;32.83;23.80;;;17.30;99.90;;;;;;5095631;28;20235;-84
2023/05/16 03:18:00;;;;;;;35.60;24.67;;;17.30;99.90;;;;;;5095950;28;20660;-84
2023/05/16 03:20:26;;;;;;;34.00;23.43;;;17.30;99.90;;;;;;5095767;28;20200;-82
2023/05/16 03:22:51;;;;;;;30.27;22.10;;;17.40;99.90;;;;;;5114153;28;20594;-83
2023/05/16 03:25:17;;;;;;;31.47;22.57;;;17.40;99.90;;;;;;5114285;28;20199;-84
2023/05/16 03:27:42;;;;;;;30.57;21.93;;;17.40;99.90;;;;;;5114154;28;20183;-83
2023/05/16 03:30:08;;;;;;;31.70;23.60;;;17.40;99.90;;;;;;5095647;28;20679;-83
2023/05/16 03:32:34;;;;;;;31.20;22.70;;;17.30;99.90;;;;;;5097486;28;20243;-83
2023/05/16 03:35:00;;;;;;;35.80;24.17;;;17.30;99.90;;;;;;5098110;28;20447;-83
2023/05/16 03:37:26;;;;;;;31.97;22.20;;;17.30;99.90;;;;;;5098856;28;20282;-83
2023/05/16 03:39:52;;;;;;;30.27;22.00;;;17.40;99.90;;;;;;5098816;28;20183;-84
2023/05/16 03:42:17;;;;;;;32.50;22.50;;;17.40;99.90;;;;;;5098930;28;20502;-82
2023/05/16 03:44:43;;;;;;;28.40;21.83;;;17.30;99.90;;;;;;5098894;28;20530;-84
2023/05/16 03:47:09;;;;;;;29.87;21.87;;;17.30;99.90;;;;;;5117180;28;20179;-84
2023/05/16 03:49:36;;;;;;;26.60;20.00;;;17.30;99.90;;;;;;5099563;28;20404;-83
2023/05/16 03:52:03;;;;;;;28.80;21.00;;;17.30;99.90;;;;;;5117955;28;20159;-84
2023/05/16 03:54:28;;;;;;;27.20;19.77;;;17.30;99.90;;;;;;5099593;28;20526;-82
2023/05/16 03:56:54;;;;;;;26.90;20.93;;;17.20;99.90;;;;;;5099430;28;20928;-83
2023/05/16 03:59:20;;;;;;;107.20;63.33;;;17.20;99.90;;;;;;5099235;28;20179;-82
2023/05/16 04:01:46;;;;;;;32.70;22.60;;;17.20;99.90;;;;;;5099341;28;20199;-82
2023/05/16 04:04:13;;;;;;;32.23;22.93;;;17.30;99.90;;;;;;5099158;28;20777;-82
2023/05/16 04:06:38;;;;;;;28.93;21.57;;;17.20;99.90;;;;;;5098148;28;20448;-82
2023/05/16 04:09:05;;;;;;;26.60;21.27;;;17.20;99.90;;;;;;5099113;28;20443;-82
2023/05/16 04:11:31;;;;;;;34.53;21.93;;;17.20;99.90;;;;;;5117841;28;20275;-82
2023/05/16 04:13:58;;;;;;;31.00;22.20;;;17.20;99.90;;;;;;5099087;28;21018;-83
2023/05/16 04:16:24;;;;;;;27.77;21.10;;;17.20;99.90;;;;;;5098325;28;20582;-83
2023/05/16 04:18:49;;;;;;;26.50;20.53;;;17.20;99.90;;;;;;5098967;28;20964;-82
2023/05/16 04:21:15;;;;;;;29.00;20.80;;;17.20;99.90;;;;;;5117589;28;20216;-81
2023/05/16 04:23:41;;;;;;;28.13;21.03;;;17.10;99.90;;;;;;5116659;28;20629;-81
2023/05/16 04:26:11;;;;;;;32.17;21.43;;;17.10;99.90;;;;;;5097336;28;20204;-85
2023/05/16 04:28:37;;;;;;;29.00;21.67;;;17.20;99.90;;;;;;5115674;28;20428;-84
2023/05/16 04:31:03;;;;;;;29.60;22.53;;;17.20;99.90;;;;;;5115156;28;20446;-83
2023/05/16 04:33:28;;;;;;;25.57;22.37;;;17.20;99.90;;;;;;5114740;28;20175;-81
2023/05/16 04:35:59;;;;;;;30.70;21.70;;;17.20;99.90;;;;;;5089470;28;20324;-84
2023/05/16 04:38:25;;;;;;;34.17;23.90;;;17.30;99.90;;;;;;5087595;28;20175;-82
2023/05/16 04:40:51;;;;;;;30.50;23.37;;;17.30;99.90;;;;;;5087008;28;20564;-82
2023/05/16 04:43:18;;;;;;;32.17;23.07;;;17.40;99.90;;;;;;5089289;28;20412;-82
2023/05/16 04:45:44;;;;;;;30.87;23.47;;;17.50;99.90;;;;;;5091558;28;20811;-83
2023/05/16 04:48:10;;;;;;;29.80;22.23;;;17.50;99.90;;;;;;5106541;28;20397;-81
2023/05/16 04:50:36;;;;;;;32.60;23.30;;;17.50;99.90;;;;;;5105543;28;20707;-84
2023/05/16 04:53:02;;;;;;;32.13;22.90;;;17.50;99.90;;;;;;5110544;27;20481;-84
2023/05/16 04:55:28;;;;;;;33.10;24.97;;;17.50;99.90;;;;;;5108631;27;20261;-84
2023/05/16 04:57:53;;;;;;;30.00;23.03;;;17.60;99.90;;;;;;5106971;27;20588;-82
2023/05/16 05:00:19;;;;;;;32.40;23.30;;;17.50;99.90;;;;;;5095742;28;20211;-84
2023/05/16 05:02:45;;;;;;;30.40;22.70;;;17.50;99.90;;;;;;5086849;28;20225;-83
2023/05/16 05:05:11;;;;;;;32.60;22.80;;;17.50;99.90;;;;;;5104831;28;20440;-83
2023/05/16 05:07:37;;;;;;;30.27;22.10;;;17.40;99.90;;;;;;5084122;28;20409;-84
2023/05/16 05:10:02;;;;;;;26.17;20.27;;;17.40;99.90;;;;;;5103080;28;20565;-84
2023/05/16 05:12:28;;;;;;;223.47;112.23;;;17.30;99.90;;;;;;5108424;27;20425;-83
2023/05/16 05:14:54;;;;;;;30.23;21.53;;;17.30;99.90;;;;;;5106422;28;20731;-82
2023/05/16 05:17:20;;;;;;;26.90;21.50;;;17.30;99.90;;;;;;5105220;27;20220;-81
2023/05/16 05:19:47;;;;;;;32.50;22.10;;;17.30;99.90;;;;;;5119525;27;20649;-82
2023/05/16 05:22:13;;;;;;;25.63;19.10;;;17.30;99.90;;;;;;5085690;28;20786;-82
2023/05/16 05:24:39;;;;;;;23.10;19.47;;;17.30;99.90;;;;;;5090213;28;20416;-84
2023/05/16 05:27:05;;;;;;;27.77;20.07;;;17.30;99.90;;;;;;5108327;28;20943;-84
2023/05/16 05:29:30;;;;;;;22.40;19.97;;;17.30;99.90;;;;;;5121436;27;20954;-85
2023/05/16 05:31:56;;;;;;;23.57;17.80;;;17.30;99.90;;;;;;5114631;28;20435;-83
2023/05/16 05:34:22;;;;;;;21.93;17.83;;;17.30;99.90;;;;;;5091198;28;20181;-84
2023/05/16 05:36:47;;;;;;;22.53;17.03;;;17.30;99.90;;;;;;5130417;27;20214;-84
2023/05/16 05:39:13;;;;;;;23.50;18.30;;;17.20;99.90;;;;;;5122895;27;20192;-82
2023/05/16 05:41:39;;;;;;;28.13;20.10;;;17.30;99.90;;;;;;5119206;27;20203;-83
2023/05/16 05:44:05;;;;;;;23.17;17.70;;;17.30;99.90;;;;;;5119741;27;20598;-83
2023/05/16 05:46:33;;;;;;;26.17;19.90;;;17.20;99.90;;;;;;5095442;28;20205;-84
2023/05/16 05:48:59;;;;;;;28.70;20.10;;;17.30;99.90;;;;;;5111886;28;20494;-83
2023/05/16 05:51:26;;;;;;;24.43;18.40;;;17.50;99.90;;;;;;5126913;27;20476;-84
2023/05/16 05:53:52;;;;;;;26.27;20.30;;;17.50;99.90;;;;;;5122882;27;20442;-84
2023/05/16 05:56:17;;;;;;;23.87;18.57;;;17.50;99.90;;;;;;5098804;28;20477;-82
2023/05/16 05:58:44;;;;;;;23.80;18.40;;;17.60;99.90;;;;;;5115301;27;20428;-82
2023/05/16 06:01:11;;;;;;;26.57;19.73;;;17.60;99.90;;;;;;5093857;28;20217;-84
2023/05/16 06:03:37;;;;;;;25.70;19.00;;;17.70;99.90;;;;;;5121026;27;20420;-84
2023/05/16 06:06:03;;;;;;;22.90;19.00;;;17.70;99.90;;;;;;5118532;27;20487;-83
2023/05/16 06:08:29;;;;;;;26.03;19.87;;;17.60;99.90;;;;;;5102291;27;20428;-84
2023/05/16 06:10:54;;;;;;;23.40;17.87;;;17.70;99.90;;;;;;5110946;28;20440;-82
2023/05/16 06:13:20;;;;;;;22.73;17.70;;;17.70;99.90;;;;;;5113147;27;20497;-83
2023/05/16 06:15:53;;;;;;;33.70;19.10;;;17.70;99.90;;;;;;5096598;28;20773;-84
2023/05/16 06:18:19;;;;;;;24.70;17.20;;;17.70;99.90;;;;;;5104500;27;20171;-84
2023/05/16 06:20:44;;;;;;;24.00;18.27;;;17.70;99.90;;;;;;5126754;27;20444;-82
2023/05/16 06:23:10;;;;;;;26.93;18.30;;;17.70;99.90;;;;;;5096220;28;20411;-83
2023/05/16 06:25:36;;;;;;;23.97;17.53;;;17.70;99.90;;;;;;5096363;28;20203;-85
2023/05/16 06:28:02;;;;;;;22.33;17.40;;;17.70;99.90;;;;;;5123005;27;20207;-82
2023/05/16 06:30:27;;;;;;;27.57;18.63;;;17.70;99.90;;;;;;5096474;28;20196;-83
2023/05/16 06:32:53;;;;;;;26.57;18.87;;;17.80;99.90;;;;;;5092955;28;20187;-83
2023/05/16 06:35:19;;;;;;;23.33;17.97;;;17.70;99.90;;;;;;5110320;27;20202;-82
2023/05/16 06:37:44;;;;;;;26.50;18.30;;;17.70;99.90;;;;;;5118823;27;20688;-85
2023/05/16 06:40:10;;;;;;;28.37;18.67;;;17.70;99.90;;;;;;5112089;28;20208;-83
2023/05/16 06:42:36;;;;;;;29.23;17.27;;;17.70;99.90;;;;;;5111940;28;20176;-85
2023/05/16 06:45:02;;;;;;;26.30;16.80;;;17.80;99.90;;;;;;5097979;28;20960;-85
2023/05/16 06:47:28;;;;;;;20.50;15.37;;;17.80;99.90;;;;;;5092760;28;20201;-82
2023/05/16 06:49:53;;;;;;;24.40;17.97;;;17.80;99.90;;;;;;5109394;28;20449;-84
2023/05/16 06:52:21;;;;;;;23.30;17.80;;;17.90;99.90;;;;;;5120620;27;20180;-82
2023/05/16 06:54:47;;;;;;;23.93;16.40;;;17.80;99.90;;;;;;5101065;28;20192;-83
2023/05/16 06:57:12;;;;;;;23.10;15.80;;;17.90;99.90;;;;;;5113595;28;21268;-83
2023/05/16 06:59:38;;;;;;;19.57;17.47;;;17.90;99.90;;;;;;5111817;27;20176;-82
2023/05/16 07:02:05;;;;;;;20.03;16.07;;;17.90;99.90;;;;;;5094108;28;20190;-85
2023/05/16 07:04:30;;;;;;;22.47;15.50;;;17.90;99.90;;;;;;5092692;28;20433;-85
2023/05/16 07:06:56;;;;;;;22.80;16.47;;;17.90;99.90;;;;;;5112819;28;20785;-84
2023/05/16 07:09:22;;;;;;;24.53;16.37;;;17.90;99.90;;;;;;5108247;28;20177;-85
2023/05/16 07:11:48;;;;;;;23.50;15.93;;;17.90;99.90;;;;;;5115983;27;20204;-82
2023/05/16 07:14:13;;;;;;;22.33;15.90;;;17.90;99.90;;;;;;5132071;27;20231;-82
2023/05/16 07:16:39;;;;;;;22.20;16.90;;;17.90;99.90;;;;;;5121929;27;20317;-82
2023/05/16 07:19:07;;;;;;;19.77;16.60;;;18.00;99.90;;;;;;5107421;28;20200;-85
2023/05/16 07:21:32;;;;;;;23.63;16.50;;;18.00;99.90;;;;;;5092343;28;20575;-82
2023/05/16 07:23:58;;;;;;;26.87;18.07;;;18.00;99.90;;;;;;5120813;28;20493;-82
2023/05/16 07:26:24;;;;;;;23.10;17.50;;;18.00;99.90;;;;;;5110083;28;20212;-82
2023/05/16 07:28:49;;;;;;;22.17;15.97;;;18.10;99.90;;;;;;5109070;28;20595;-83
2023/05/16 07:31:16;;;;;;;24.90;16.10;;;18.10;99.90;;;;;;5107967;28;20292;-82
2023/05/16 07:33:42;;;;;;;20.90;15.80;;;18.10;99.90;;;;;;5080669;28;20220;-84
2023/05/16 07:36:09;;;;;;;20.77;15.73;;;18.10;99.90;;;;;;5090138;28;20515;-85
2023/05/16 07:38:35;;;;;;;21.37;17.50;;;18.10;99.90;;;;;;5092962;28;20443;-83
2023/05/16 07:41:00;;;;;;;20.27;15.67;;;18.20;99.90;;;;;;5112302;28;20450;-85
2023/05/16 07:43:26;;;;;;;20.60;17.30;;;18.20;99.90;;;;;;5093455;28;20187;-83
2023/05/16 07:45:52;;;;;;;21.40;14.73;;;18.20;99.90;;;;;;5090440;28;20197;-85
2023/05/16 07:48:17;;;;;;;19.87;15.33;;;18.20;99.90;;;;;;5108611;28;20264;-82
2023/05/16 07:50:43;;;;;;;23.90;15.33;;;18.20;99.90;;;;;;5102024;28;20457;-82
2023/05/16 07:53:09;;;;;;;24.37;15.33;;;18.20;99.90;;;;;;5107665;28;20188;-82
2023/05/16 07:55:34;;;;;;;20.83;15.33;;;18.30;99.90;;;;;;5091744;28;20205;-84
2023/05/16 07:58:00;;;;;;;21.80;16.00;;;18.30;99.90;;;;;;5089624;28;20177;-84
2023/05/16 08:00:26;;;;;;;20.80;16.03;;;18.30;99.90;;;;;;5097264;28;20695;-82
2023/05/16 08:02:52;;;;;;;19.10;15.33;;;18.40;99.90;;;;;;5108247;28;20422;-85
2023/05/16 08:05:17;;;;;;;20.83;15.33;;;18.40;99.90;;;;;;5089531;28;20204;-85
2023/05/16 08:07:43;;;;;;;24.50;14.20;;;18.40;99.90;;;;;;5102028;28;20712;-84
2023/05/16 08:10:09;;;;;;;30.37;16.37;;;18.40;99.90;;;;;;5090461;28;20296;-83
2023/05/16 08:12:35;;;;;;;18.90;15.23;;;18.50;99.90;;;;;;5100799;28;20486;-84
2023/05/16 08:15:02;;;;;;;22.40;15.67;;;18.50;99.90;;;;;;5078168;28;20635;-85
2023/05/16 08:17:28;;;;;;;24.87;16.53;;;18.50;99.90;;;;;;5084850;28;20837;-86
2023/05/16 08:19:54;;;;;;;19.70;14.63;;;18.60;99.90;;;;;;5100367;28;20479;-84
2023/05/16 08:22:20;;;;;;;21.83;14.87;;;18.60;99.90;;;;;;5079266;28;20430;-83
2023/05/16 08:24:46;;;;;;;22.37;15.77;;;18.60;99.90;;;;;;5090356;28;20436;-83
2023/05/16 08:27:11;;;;;;;24.90;14.93;;;18.60;99.90;;;;;;5113870;27;20192;-83
2023/05/16 08:29:37;;;;;;;26.60;16.97;;;18.70;99.90;;;;;;5092297;28;20194;-83
2023/05/16 08:32:03;;;;;;;24.77;15.03;;;18.70;99.90;;;;;;5087128;28;20828;-80
2023/05/16 08:34:32;;;;;;;18.57;14.63;;;18.70;99.90;;;;;;5109580;28;20188;-83
2023/05/16 08:36:59;;;;;;;15.77;13.63;;;18.70;99.90;;;;;;5114369;27;20468;-82
2023/05/16 08:39:25;;;;;;;18.50;16.00;;;18.70;99.90;;;;;;5109201;27;20448;-81
2023/05/16 08:41:50;;;;;;;25.80;14.80;;;18.70;99.90;;;;;;5111790;27;20638;-81
2023/05/16 08:44:20;;;;;;;19.43;14.90;;;18.70;99.90;;;;;;5091145;28;20513;-80
2023/05/16 08:46:51;;;;;;;18.63;13.77;;;18.80;99.90;;;;;;5101999;28;20594;-84
2023/05/16 08:49:18;;;;;;;20.43;14.17;;;18.80;99.90;;;;;;5104293;27;20448;-82
2023/05/16 08:51:45;;;;;;;25.83;15.77;;;18.80;99.90;;;;;;5113324;27;20452;-81
2023/05/16 08:54:13;;;;;;;23.17;15.50;;;18.80;99.90;;;;;;5110719;28;20413;-81
2023/05/16 08:56:41;;;;;;;20.23;14.97;;;18.90;99.90;;;;;;5109480;28;20469;-81
2023/05/16 08:59:10;;;;;;;19.87;13.87;;;18.90;99.90;;;;;;5091932;27;20437;-82
2023/05/16 09:01:36;;;;;;;21.67;14.33;;;18.90;99.90;;;;;;5109892;28;20504;-82
2023/05/16 09:04:04;;;;;;;159.67;95.63;;;19.00;99.90;;;;;;5115768;27;21007;-83
2023/05/16 09:06:30;;;;;;;16.63;14.03;;;19.00;99.90;;;;;;5110298;28;20986;-83
2023/05/16 09:08:56;;;;;;;18.00;15.80;;;19.00;99.90;;;;;;5104622;28;20487;-82
2023/05/16 09:11:22;;;;;;;24.13;13.53;;;19.00;99.90;;;;;;5108467;27;20201;-81
2023/05/16 09:13:48;;;;;;;17.63;13.77;;;19.10;99.90;;;;;;5108266;28;20276;-81
2023/05/16 09:16:20;;;;;;;22.93;14.27;;;19.10;99.90;;;;;;5108040;28;20982;-81
2023/05/16 09:18:55;;;;;;;17.30;13.67;;;19.10;99.90;;;;;;5091963;28;20436;-85
2023/05/16 09:21:22;;;;;;;18.90;13.17;;;19.10;99.90;;;;;;5089477;28;20477;-83
2023/05/16 09:23:49;;;;;;;17.30;14.00;;;19.10;99.90;;;;;;5112061;27;20525;-83
2023/05/16 09:26:14;;;;;;;18.10;13.20;;;19.10;99.90;;;;;;5108767;27;20456;-83
2023/05/16 09:28:40;;;;;;;16.27;13.20;;;19.10;99.90;;;;;;5126738;27;20435;-84
2023/05/16 09:31:20;;;;;;;20.03;14.27;;;19.10;99.90;;;;;;5106501;27;20490;-82
2023/05/16 09:33:47;;;;;;;24.33;14.23;;;19.20;99.90;;;;;;5097649;28;20190;-81
2023/05/16 09:36:15;;;;;;;19.00;13.27;;;19.20;99.90;;;;;;5091801;28;21114;-84
2023/05/16 09:38:40;;;;;;;14.40;12.80;;;19.20;99.90;;;;;;5090808;28;20433;-82
2023/05/16 09:41:10;;;;;;;19.40;14.07;;;19.30;99.90;;;;;;5101411;28;20450;-82
2023/05/16 09:43:46;;;;;;;19.83;14.33;;;19.30;99.90;;;;;;5097186;28;20541;-83
2023/05/16 09:46:15;;;;;;;18.93;13.70;;;19.40;99.90;;;;;;5081320;28;20452;-82
2023/05/16 09:48:47;;;;;;;17.07;14.10;;;19.40;99.90;;;;;;5091829;28;20478;-82
2023/05/16 09:51:14;;;;;;;23.30;15.10;;;19.50;99.90;;;;;;5111554;27;21644;-83
2023/05/16 09:53:43;;;;;;;16.87;12.70;;;19.50;99.90;;;;;;5095370;28;20522;-83
2023/05/16 09:56:14;;;;;;;18.93;13.30;;;19.60;99.90;;;;;;5108399;27;20488;-82
2023/05/16 09:58:42;;;;;;;17.80;14.20;;;19.70;99.90;;;;;;5098490;27;20449;-84
2023/05/16 10:01:09;;;;;;;13.23;11.80;;;19.80;99.90;;;;;;5092457;28;20457;-82
2023/05/16 10:03:37;;;;;;;18.37;11.27;;;19.90;99.90;;;;;;5113308;28;20496;-84
2023/05/16 10:06:07;;;;;;;16.43;12.10;;;20.00;99.90;;;;;;5096116;28;21028;-82
2023/05/16 10:08:36;;;;;;;13.90;12.00;;;20.10;99.90;;;;;;5112805;27;20444;-82
2023/05/16 10:11:04;;;;;;;12.37;11.13;;;20.10;99.90;;;;;;5100259;28;20446;-83
2023/05/16 10:13:32;;;;;;;14.47;11.47;;;20.10;99.90;;;;;;5095444;28;20438;-84
2023/05/16 10:16:00;;;;;;;20.83;15.83;;;20.20;99.90;;;;;;5093731;28;20525;-83
2023/05/16 10:18:30;;;;;;;17.13;11.73;;;20.30;99.90;;;;;;5090283;27;20950;-81
2023/05/16 10:21:08;;;;;;;15.40;9.80;;;20.40;99.90;;;;;;5117284;27;20438;-82
2023/05/16 10:23:36;;;;;;;16.17;10.97;;;20.40;99.90;;;;;;5111339;28;20443;-82
2023/05/16 10:26:05;;;;;;;15.00;11.10;;;20.50;99.90;;;;;;5102890;28;20451;-83
2023/05/16 10:28:31;;;;;;;15.23;11.77;;;20.50;99.90;;;;;;5102078;27;20453;-83
2023/05/16 10:30:58;;;;;;;12.73;11.43;;;20.50;99.90;;;;;;5101638;27;20486;-82
2023/05/16 10:33:23;;;;;;;17.70;11.90;;;20.50;99.90;;;;;;5102764;28;20519;-84
2023/05/16 10:35:49;;;;;;;17.60;12.33;;;20.50;99.90;;;;;;5090995;27;20460;-84
2023/05/16 10:38:17;;;;;;;14.13;10.10;;;20.40;99.90;;;;;;5103002;27;20175;-84
2023/05/16 10:40:45;;;;;;;14.40;9.80;;;20.40;99.90;;;;;;5093754;28;20507;-83
2023/05/16 10:43:43;;;;;;;12.27;8.90;;;20.40;99.90;;;;;;5098767;28;20427;-83
2023/05/16 10:46:10;;;;;;;12.00;9.93;;;20.40;99.90;;;;;;5123018;27;20968;-82
2023/05/16 10:48:37;;;;;;;12.97;9.13;;;20.40;99.90;;;;;;5108391;27;20431;-82
2023/05/16 10:51:30;;;;;;;16.73;9.50;;;20.50;99.90;;;;;;5086275;28;20462;-81
2023/05/16 10:54:08;;;;;;;13.13;10.27;;;20.40;99.90;;;;;;5110477;27;20897;-81
2023/05/16 10:56:34;;;;;;;16.00;10.83;;;20.40;99.90;;;;;;5101437;27;20478;-84
2023/05/16 10:59:00;;;;;;;13.63;9.80;;;20.50;99.90;;;;;;5099552;27;20431;-83
2023/05/16 11:01:32;;;;;;;12.23;10.27;;;20.50;99.90;;;;;;5100735;28;20451;-83
2023/05/16 11:04:00;;;;;;;12.10;9.20;;;20.50;99.90;;;;;;5083704;28;20179;-83
2023/05/16 11:06:51;;;;;;;17.93;9.77;;;20.60;99.90;;;;;;5088058;28;20451;-82
2023/05/16 11:09:22;;;;;;;15.90;9.90;;;20.60;99.90;;;;;;5079302;27;20428;-82
2023/05/16 11:11:50;;;;;;;13.97;9.00;;;20.60;99.90;;;;;;5108788;28;20451;-85
2023/05/16 11:14:23;;;;;;;14.90;10.10;;;20.50;99.90;;;;;;5091520;28;20443;-81
2023/05/16 11:16:50;;;;;;;12.53;9.70;;;20.50;99.90;;;;;;5107363;27;20519;-84
2023/05/16 11:19:38;;;;;;;19.73;10.57;;;20.50;99.90;;;;;;5101373;28;20446;-81
2023/05/16 11:22:15;;;;;;;12.63;9.50;;;20.50;99.90;;;;;;5100472;28;20497;-82
2023/05/16 11:25:03;;;;;;;18.03;9.97;;;20.60;99.90;;;;;;5086280;28;20644;-81
2023/05/16 11:27:35;;;;;;;13.17;9.77;;;20.60;99.90;;;;;;5085294;28;20455;-82
2023/05/16 11:30:04;;;;;;;14.43;10.80;;;20.50;99.90;;;;;;5103887;28;20470;-83
2023/05/16 11:32:34;;;;;;;13.20;9.77;;;20.60;99.90;;;;;;5087353;28;20439;-83
2023/05/16 11:35:00;;;;;;;13.70;9.50;;;20.50;99.90;;;;;;5107969;28;20781;-84
2023/05/16 11:37:27;;;;;;;12.83;9.80;;;20.60;99.90;;;;;;5099313;28;20477;-82
2023/05/16 11:39:53;;;;;;;20.87;10.87;;;20.60;99.90;;;;;;5086266;28;20432;-82
2023/05/16 11:42:19;;;;;;;12.13;9.70;;;20.60;99.90;;;;;;5107174;28;20435;-84
2023/05/16 11:44:45;;;;;;;12.70;10.17;;;20.60;99.90;;;;;;5103168;28;20462;-81
2023/05/16 11:47:11;;;;;;;14.63;10.70;;;20.60;99.90;;;;;;5086409;28;20458;-85
2023/05/16 11:49:37;;;;;;;14.30;10.40;;;20.60;99.90;;;;;;5105320;28;20511;-82
2023/05/16 11:52:03;;;;;;;11.27;9.77;;;20.60;99.90;;;;;;5105747;28;20180;-85
2023/05/16 11:54:30;;;;;;;15.83;11.67;;;20.60;99.90;;;;;;5094257;28;20191;-85
2023/05/16 11:56:56;;;;;;;14.80;11.90;;;20.60;99.90;;;;;;5093214;28;20491;-83
2023/05/16 11:59:22;;;;;;;16.17;11.80;;;20.60;99.90;;;;;;5112105;28;20439;-85
2023/05/16 12:01:49;;;;;;;14.83;10.20;;;20.60;99.90;;;;;;5093347;28;20206;-85
2023/05/16 12:04:16;;;;;;;14.57;12.13;;;20.60;99.90;;;;;;5109079;27;20420;-82
2023/05/16 12:06:43;;;;;;;18.03;11.27;;;20.60;99.90;;;;;;5087202;28;20543;-84
2023/05/16 12:09:13;;;;;;;16.47;11.47;;;20.60;99.90;;;;;;5087539;28;20441;-82
2023/05/16 12:11:43;;;;;;;17.27;10.77;;;20.60;99.90;;;;;;5110834;28;20454;-82
2023/05/16 12:14:13;;;;;;;19.60;11.43;;;20.60;99.90;;;;;;5093491;28;20440;-81
2023/05/16 12:16:42;;;;;;;16.47;11.57;;;20.60;99.90;;;;;;5112106;28;20849;-85
2023/05/16 12:19:08;;;;;;;13.70;10.70;;;20.60;99.90;;;;;;5112296;28;20491;-83
2023/05/16 12:21:34;;;;;;;20.20;10.90;;;20.60;99.90;;;;;;5092236;28;20464;-85
2023/05/16 12:24:01;;;;;;;13.53;10.43;;;20.70;99.90;;;;;;5114273;27;20423;-85
2023/05/16 12:26:32;;;;;;;13.87;9.27;;;20.70;99.90;;;;;;5095395;28;20444;-83
2023/05/16 12:29:01;;;;;;;12.43;10.20;;;20.70;99.90;;;;;;5110032;28;20427;-85
2023/05/16 12:31:29;;;;;;;16.03;10.13;;;20.70;99.90;;;;;;5115377;28;20439;-85